sensor_id;sensor_type;location;lat;lon;timestamp;pressure;altitude;pressure_sealevel;temperature;humidity
51452;BME280;37521;52.020;-1.740;2023-03-14T00:01:09;97199.03;;;3.87;100.00
51452;BME280;37521;52.020;-1.740;2023-03-14T00:03:39;97200.19;;;3.83;100.00
51452;BME280;37521;52.020;-1.740;2023-03-14T00:06:08;97205.69;;;3.78;100.00
51452;BME280;37521;52.020;-1.740;2023-03-14T00:08:36;97208.31;;;3.78;100.00
51452;BME280;37521;52.020;-1.740;2023-03-14T00:11:06;97217.06;;;3.77;100.00
51452;BME280;37521;52.020;-1.740;2023-03-14T00:13:35;97207.69;;;3.75;100.00
51452;BME280;37521;52.020;-1.740;2023-03-14T00:16:05;97234.78;;;3.72;100.00
51452;BME280;37521;52.020;-1.740;2023-03-14T00:18:34;97224.34;;;3.72;100.00
51452;BME280;37521;52.020;-1.740;2023-03-14T00:21:04;97249.16;;;3.65;100.00
51452;BME280;37521;52.020;-1.740;2023-03-14T00:23:35;97247.88;;;3.58;100.00
51452;BME280;37521;52.020;-1.740;2023-03-14T00:26:07;97258.03;;;3.48;100.00
51452;BME280;37521;52.020;-1.740;2023-03-14T00:28:36;97268.19;;;3.39;100.00
51452;BME280;37521;52.020;-1.740;2023-03-14T00:31:06;97264.47;;;3.28;100.00
51452;BME280;37521;52.020;-1.740;2023-03-14T00:33:35;97275.66;;;3.16;100.00
51452;BME280;37521;52.020;-1.740;2023-03-14T00:36:06;97287.38;;;3.09;100.00
51452;BME280;37521;52.020;-1.740;2023-03-14T00:38:37;97301.34;;;3.08;100.00
51452;BME280;37521;52.020;-1.740;2023-03-14T00:41:07;97315.66;;;3.01;100.00
51452;BME280;37521;52.020;-1.740;2023-03-14T00:43:35;97327.34;;;2.94;100.00
51452;BME280;37521;52.020;-1.740;2023-03-14T00:46:04;97334.69;;;2.87;100.00
51452;BME280;37521;52.020;-1.740;2023-03-14T00:48:33;97341.78;;;2.85;100.00
51452;BME280;37521;52.020;-1.740;2023-03-14T00:51:01;97336.47;;;2.87;100.00
51452;BME280;37521;52.020;-1.740;2023-03-14T00:53:35;97351.94;;;2.90;100.00
51452;BME280;37521;52.020;-1.740;2023-03-14T00:56:04;97356.91;;;2.94;100.00
51452;BME280;37521;52.020;-1.740;2023-03-14T00:58:33;97360.25;;;2.96;100.00
51452;BME280;37521;52.020;-1.740;2023-03-14T01:01:05;97375.19;;;2.93;100.00
51452;BME280;37521;52.020;-1.740;2023-03-14T01:03:34;97385.81;;;2.90;100.00
51452;BME280;37521;52.020;-1.740;2023-03-14T01:06:09;97388.19;;;2.79;100.00
51452;BME280;37521;52.020;-1.740;2023-03-14T01:08:40;97395.41;;;2.73;100.00
51452;BME280;37521;52.020;-1.740;2023-03-14T01:11:10;97394.03;;;2.68;100.00
51452;BME280;37521;52.020;-1.740;2023-03-14T01:13:39;97418.88;;;2.58;100.00
51452;BME280;37521;52.020;-1.740;2023-03-14T01:16:09;97425.47;;;2.49;100.00
51452;BME280;37521;52.020;-1.740;2023-03-14T01:18:39;97420.50;;;2.44;100.00
51452;BME280;37521;52.020;-1.740;2023-03-14T01:21:11;97439.28;;;2.34;100.00
51452;BME280;37521;52.020;-1.740;2023-03-14T01:23:41;97439.72;;;2.26;100.00
51452;BME280;37521;52.020;-1.740;2023-03-14T01:26:11;97448.88;;;2.17;100.00
51452;BME280;37521;52.020;-1.740;2023-03-14T01:28:40;97450.72;;;2.15;100.00
51452;BME280;37521;52.020;-1.740;2023-03-14T01:31:10;97464.53;;;2.00;100.00
51452;BME280;37521;52.020;-1.740;2023-03-14T01:33:39;97468.97;;;1.98;100.00
51452;BME280;37521;52.020;-1.740;2023-03-14T01:36:09;97486.59;;;1.93;100.00
51452;BME280;37521;52.020;-1.740;2023-03-14T01:38:41;97480.72;;;1.89;100.00
51452;BME280;37521;52.020;-1.740;2023-03-14T01:41:14;97485.22;;;1.86;100.00
51452;BME280;37521;52.020;-1.740;2023-03-14T01:43:43;97479.50;;;1.79;100.00
51452;BME280;37521;52.020;-1.740;2023-03-14T01:46:24;97483.19;;;1.75;100.00
51452;BME280;37521;52.020;-1.740;2023-03-14T01:48:58;97495.66;;;1.69;100.00
51452;BME280;37521;52.020;-1.740;2023-03-14T01:51:31;97492.28;;;1.67;100.00
51452;BME280;37521;52.020;-1.740;2023-03-14T01:54:09;97496.34;;;1.72;100.00
51452;BME280;37521;52.020;-1.740;2023-03-14T01:56:39;97507.53;;;1.74;100.00
51452;BME280;37521;52.020;-1.740;2023-03-14T01:59:10;97511.09;;;1.72;100.00
51452;BME280;37521;52.020;-1.740;2023-03-14T02:01:42;97509.72;;;1.64;100.00
51452;BME280;37521;52.020;-1.740;2023-03-14T02:04:11;97512.56;;;1.60;100.00
51452;BME280;37521;52.020;-1.740;2023-03-14T02:06:48;97512.81;;;1.55;100.00
51452;BME280;37521;52.020;-1.740;2023-03-14T02:09:20;97507.91;;;1.49;100.00
51452;BME280;37521;52.020;-1.740;2023-03-14T02:11:50;97503.00;;;1.43;100.00
51452;BME280;37521;52.020;-1.740;2023-03-14T02:14:34;97512.41;;;1.46;100.00
51452;BME280;37521;52.020;-1.740;2023-03-14T02:17:22;97516.78;;;1.45;100.00
51452;BME280;37521;52.020;-1.740;2023-03-14T02:20:23;97516.94;;;1.42;100.00
51452;BME280;37521;52.020;-1.740;2023-03-14T02:22:56;97531.63;;;1.43;100.00
51452;BME280;37521;52.020;-1.740;2023-03-14T02:25:35;97527.03;;;1.48;100.00
51452;BME280;37521;52.020;-1.740;2023-03-14T02:28:08;97538.34;;;1.47;100.00
51452;BME280;37521;52.020;-1.740;2023-03-14T02:30:38;97566.16;;;1.45;100.00
51452;BME280;37521;52.020;-1.740;2023-03-14T02:33:08;97563.72;;;1.42;100.00
51452;BME280;37521;52.020;-1.740;2023-03-14T02:35:43;97572.03;;;1.31;100.00
51452;BME280;37521;52.020;-1.740;2023-03-14T02:38:17;97580.00;;;1.28;100.00
51452;BME280;37521;52.020;-1.740;2023-03-14T02:40:49;97578.66;;;1.20;100.00
51452;BME280;37521;52.020;-1.740;2023-03-14T02:43:19;97591.81;;;1.17;100.00
51452;BME280;37521;52.020;-1.740;2023-03-14T02:45:54;97601.28;;;1.18;100.00
51452;BME280;37521;52.020;-1.740;2023-03-14T02:48:25;97610.63;;;1.22;100.00
51452;BME280;37521;52.020;-1.740;2023-03-14T02:50:55;97610.00;;;1.17;100.00
51452;BME280;37521;52.020;-1.740;2023-03-14T02:53:27;97619.75;;;1.12;100.00
51452;BME280;37521;52.020;-1.740;2023-03-14T02:55:58;97622.25;;;1.15;100.00
51452;BME280;37521;52.020;-1.740;2023-03-14T02:58:30;97628.28;;;1.15;100.00
51452;BME280;37521;52.020;-1.740;2023-03-14T03:01:06;97629.59;;;1.05;100.00
51452;BME280;37521;52.020;-1.740;2023-03-14T03:03:35;97634.88;;;1.03;100.00
51452;BME280;37521;52.020;-1.740;2023-03-14T03:06:03;97636.56;;;1.04;100.00
51452;BME280;37521;52.020;-1.740;2023-03-14T03:08:32;97639.22;;;1.03;100.00
51452;BME280;37521;52.020;-1.740;2023-03-14T03:11:00;97647.22;;;0.98;100.00
51452;BME280;37521;52.020;-1.740;2023-03-14T03:13:32;97645.53;;;0.97;100.00
51452;BME280;37521;52.020;-1.740;2023-03-14T03:16:03;97660.44;;;0.94;100.00
51452;BME280;37521;52.020;-1.740;2023-03-14T03:18:33;97652.78;;;0.91;100.00
51452;BME280;37521;52.020;-1.740;2023-03-14T03:21:03;97660.00;;;0.84;100.00
51452;BME280;37521;52.020;-1.740;2023-03-14T03:23:31;97668.00;;;0.79;100.00
51452;BME280;37521;52.020;-1.740;2023-03-14T03:25:59;97680.78;;;0.84;100.00
51452;BME280;37521;52.020;-1.740;2023-03-14T03:28:29;97680.78;;;0.84;100.00
51452;BME280;37521;52.020;-1.740;2023-03-14T03:31:06;97684.28;;;0.83;100.00
51452;BME280;37521;52.020;-1.740;2023-03-14T03:33:36;97686.13;;;0.81;100.00
51452;BME280;37521;52.020;-1.740;2023-03-14T03:36:05;97697.47;;;0.78;100.00
51452;BME280;37521;52.020;-1.740;2023-03-14T03:38:36;97699.16;;;0.79;100.00
51452;BME280;37521;52.020;-1.740;2023-03-14T03:41:06;97706.91;;;0.81;100.00
51452;BME280;37521;52.020;-1.740;2023-03-14T03:43:35;97713.91;;;0.79;100.00
51452;BME280;37521;52.020;-1.740;2023-03-14T03:46:07;97711.13;;;0.84;100.00
51452;BME280;37521;52.020;-1.740;2023-03-14T03:48:35;97722.22;;;0.87;100.00
51452;BME280;37521;52.020;-1.740;2023-03-14T03:51:05;97723.19;;;0.85;100.00
51452;BME280;37521;52.020;-1.740;2023-03-14T03:53:34;97727.81;;;0.78;100.00
51452;BME280;37521;52.020;-1.740;2023-03-14T03:56:09;97733.00;;;0.78;100.00
51452;BME280;37521;52.020;-1.740;2023-03-14T03:58:38;97739.88;;;0.79;100.00
51452;BME280;37521;52.020;-1.740;2023-03-14T04:01:09;97740.78;;;0.78;100.00
51452;BME280;37521;52.020;-1.740;2023-03-14T04:03:38;97746.75;;;0.80;100.00
51452;BME280;37521;52.020;-1.740;2023-03-14T04:06:09;97736.09;;;0.86;100.00
51452;BME280;37521;52.020;-1.740;2023-03-14T04:08:39;97747.91;;;0.93;100.00
51452;BME280;37521;52.020;-1.740;2023-03-14T04:11:11;97748.91;;;0.91;100.00
51452;BME280;37521;52.020;-1.740;2023-03-14T04:14:00;97776.63;;;0.90;100.00
51452;BME280;37521;52.020;-1.740;2023-03-14T04:16:30;97759.38;;;0.89;100.00
51452;BME280;37521;52.020;-1.740;2023-03-14T04:19:07;97781.84;;;0.90;100.00
51452;BME280;37521;52.020;-1.740;2023-03-14T04:21:35;97786.13;;;0.91;100.00
51452;BME280;37521;52.020;-1.740;2023-03-14T04:24:10;97800.53;;;0.98;100.00
51452;BME280;37521;52.020;-1.740;2023-03-14T04:26:39;97793.47;;;1.02;100.00
51452;BME280;37521;52.020;-1.740;2023-03-14T04:29:10;97802.28;;;0.98;100.00
51452;BME280;37521;52.020;-1.740;2023-03-14T04:31:42;97798.06;;;0.95;100.00
51452;BME280;37521;52.020;-1.740;2023-03-14T04:34:10;97822.31;;;0.96;100.00
51452;BME280;37521;52.020;-1.740;2023-03-14T04:36:45;97818.72;;;0.98;100.00
51452;BME280;37521;52.020;-1.740;2023-03-14T04:39:18;97831.59;;;1.01;100.00
51452;BME280;37521;52.020;-1.740;2023-03-14T04:41:53;97841.16;;;1.01;100.00
51452;BME280;37521;52.020;-1.740;2023-03-14T04:44:21;97847.38;;;0.97;100.00
51452;BME280;37521;52.020;-1.740;2023-03-14T04:46:53;97861.97;;;0.99;100.00
51452;BME280;37521;52.020;-1.740;2023-03-14T04:49:22;97858.50;;;1.00;100.00
51452;BME280;37521;52.020;-1.740;2023-03-14T04:51:50;97860.34;;;0.97;100.00
51452;BME280;37521;52.020;-1.740;2023-03-14T04:54:20;97879.13;;;1.03;100.00
51452;BME280;37521;52.020;-1.740;2023-03-14T04:56:52;97888.69;;;1.03;100.00
51452;BME280;37521;52.020;-1.740;2023-03-14T04:59:20;97895.56;;;1.04;100.00
51452;BME280;37521;52.020;-1.740;2023-03-14T05:01:53;97891.22;;;1.04;100.00
51452;BME280;37521;52.020;-1.740;2023-03-14T05:04:39;97898.00;;;1.08;100.00
51452;BME280;37521;52.020;-1.740;2023-03-14T05:07:28;97911.59;;;1.14;100.00
51452;BME280;37521;52.020;-1.740;2023-03-14T05:10:10;97913.06;;;1.21;100.00
51452;BME280;37521;52.020;-1.740;2023-03-14T05:12:53;97926.84;;;1.23;100.00
51452;BME280;37521;52.020;-1.740;2023-03-14T05:15:42;97937.06;;;1.27;100.00
51452;BME280;37521;52.020;-1.740;2023-03-14T05:18:37;97925.66;;;1.30;100.00
51452;BME280;37521;52.020;-1.740;2023-03-14T05:21:11;97939.38;;;1.33;100.00
51452;BME280;37521;52.020;-1.740;2023-03-14T05:23:40;97948.03;;;1.34;100.00
51452;BME280;37521;52.020;-1.740;2023-03-14T05:26:27;97966.25;;;1.34;100.00
51452;BME280;37521;52.020;-1.740;2023-03-14T05:29:05;97966.09;;;1.37;100.00
51452;BME280;37521;52.020;-1.740;2023-03-14T05:31:51;97978.94;;;1.40;100.00
51452;BME280;37521;52.020;-1.740;2023-03-14T05:34:30;97976.34;;;1.40;100.00
51452;BME280;37521;52.020;-1.740;2023-03-14T05:37:24;98002.25;;;1.43;100.00
51452;BME280;37521;52.020;-1.740;2023-03-14T05:40:12;97995.28;;;1.44;100.00
51452;BME280;37521;52.020;-1.740;2023-03-14T05:42:50;98005.63;;;1.45;100.00
51452;BME280;37521;52.020;-1.740;2023-03-14T05:45:34;98003.00;;;1.45;100.00
51452;BME280;37521;52.020;-1.740;2023-03-14T05:48:20;98012.50;;;1.46;100.00
51452;BME280;37521;52.020;-1.740;2023-03-14T05:51:05;98024.63;;;1.47;100.00
51452;BME280;37521;52.020;-1.740;2023-03-14T05:53:52;98029.81;;;1.47;100.00
51452;BME280;37521;52.020;-1.740;2023-03-14T05:56:39;98040.34;;;1.44;100.00
51452;BME280;37521;52.020;-1.740;2023-03-14T05:59:26;98046.38;;;1.45;100.00
51452;BME280;37521;52.020;-1.740;2023-03-14T06:02:02;98058.59;;;1.43;100.00
51452;BME280;37521;52.020;-1.740;2023-03-14T06:04:40;98060.44;;;1.41;100.00
51452;BME280;37521;52.020;-1.740;2023-03-14T06:07:10;98076.06;;;1.39;100.00
51452;BME280;37521;52.020;-1.740;2023-03-14T06:09:38;98091.03;;;1.34;100.00
51452;BME280;37521;52.020;-1.740;2023-03-14T06:12:07;98098.28;;;1.26;100.00
51452;BME280;37521;52.020;-1.740;2023-03-14T06:14:41;98110.63;;;1.21;100.00
51452;BME280;37521;52.020;-1.740;2023-03-14T06:17:10;98119.53;;;1.14;100.00
51452;BME280;37521;52.020;-1.740;2023-03-14T06:19:47;98121.50;;;1.08;100.00
51452;BME280;37521;52.020;-1.740;2023-03-14T06:22:17;98147.94;;;0.96;100.00
51452;BME280;37521;52.020;-1.740;2023-03-14T06:24:46;98159.63;;;0.85;100.00
51452;BME280;37521;52.020;-1.740;2023-03-14T06:27:16;98178.22;;;0.74;100.00
51452;BME280;37521;52.020;-1.740;2023-03-14T06:29:44;98185.31;;;0.69;100.00
51452;BME280;37521;52.020;-1.740;2023-03-14T06:32:13;98186.44;;;0.62;100.00
51452;BME280;37521;52.020;-1.740;2023-03-14T06:34:41;98201.19;;;0.60;100.00
51452;BME280;37521;52.020;-1.740;2023-03-14T06:37:10;98212.50;;;0.59;100.00
51452;BME280;37521;52.020;-1.740;2023-03-14T06:39:39;98222.94;;;0.57;100.00
51452;BME280;37521;52.020;-1.740;2023-03-14T06:42:16;98224.00;;;0.51;100.00
51452;BME280;37521;52.020;-1.740;2023-03-14T06:44:45;98232.69;;;0.50;100.00
51452;BME280;37521;52.020;-1.740;2023-03-14T06:47:13;98246.59;;;0.49;100.00
51452;BME280;37521;52.020;-1.740;2023-03-14T06:49:44;98257.06;;;0.46;100.00
51452;BME280;37521;52.020;-1.740;2023-03-14T06:52:13;98257.06;;;0.46;100.00
51452;BME280;37521;52.020;-1.740;2023-03-14T06:54:42;98257.06;;;0.46;100.00
51452;BME280;37521;52.020;-1.740;2023-03-14T06:57:11;98269.25;;;0.44;100.00
51452;BME280;37521;52.020;-1.740;2023-03-14T06:59:39;98279.63;;;0.44;100.00
51452;BME280;37521;52.020;-1.740;2023-03-14T07:02:08;98288.19;;;0.48;100.00
51452;BME280;37521;52.020;-1.740;2023-03-14T07:04:39;98295.06;;;0.49;100.00
51452;BME280;37521;52.020;-1.740;2023-03-14T07:07:09;98307.09;;;0.51;100.00
51452;BME280;37521;52.020;-1.740;2023-03-14T07:09:37;98317.59;;;0.48;100.00
51452;BME280;37521;52.020;-1.740;2023-03-14T07:12:07;98327.06;;;0.49;100.00
51452;BME280;37521;52.020;-1.740;2023-03-14T07:14:35;98334.88;;;0.49;100.00
51452;BME280;37521;52.020;-1.740;2023-03-14T07:17:03;98342.59;;;0.51;100.00
51452;BME280;37521;52.020;-1.740;2023-03-14T07:19:32;98357.34;;;0.50;100.00
51452;BME280;37521;52.020;-1.740;2023-03-14T07:22:00;98374.13;;;0.40;100.00
51452;BME280;37521;52.020;-1.740;2023-03-14T07:24:28;98387.19;;;0.37;100.00
51452;BME280;37521;52.020;-1.740;2023-03-14T07:26:56;98395.75;;;0.39;100.00
51452;BME280;37521;52.020;-1.740;2023-03-14T07:29:26;98401.84;;;0.38;100.00
51452;BME280;37521;52.020;-1.740;2023-03-14T07:31:54;98415.75;;;0.37;100.00
51452;BME280;37521;52.020;-1.740;2023-03-14T07:34:23;98427.03;;;0.36;100.00
51452;BME280;37521;52.020;-1.740;2023-03-14T07:36:51;98432.28;;;0.33;100.00
51452;BME280;37521;52.020;-1.740;2023-03-14T07:39:19;98442.66;;;0.33;100.00
51452;BME280;37521;52.020;-1.740;2023-03-14T07:41:47;98459.78;;;0.40;100.00
51452;BME280;37521;52.020;-1.740;2023-03-14T07:44:40;98468.38;;;0.42;100.00
51452;BME280;37521;52.020;-1.740;2023-03-14T07:47:08;98476.88;;;0.47;100.00
51452;BME280;37521;52.020;-1.740;2023-03-14T07:49:38;98485.38;;;0.52;100.00
51452;BME280;37521;52.020;-1.740;2023-03-14T07:52:06;98493.13;;;0.54;100.00
51452;BME280;37521;52.020;-1.740;2023-03-14T07:54:34;98503.53;;;0.52;100.00
51452;BME280;37521;52.020;-1.740;2023-03-14T07:57:02;98502.66;;;0.53;100.00
51452;BME280;37521;52.020;-1.740;2023-03-14T07:59:31;98513.91;;;0.54;100.00
51452;BME280;37521;52.020;-1.740;2023-03-14T08:02:00;98524.25;;;0.56;100.00
51452;BME280;37521;52.020;-1.740;2023-03-14T08:04:28;98530.16;;;0.61;100.00
51452;BME280;37521;52.020;-1.740;2023-03-14T08:06:56;98545.63;;;0.64;100.00
51452;BME280;37521;52.020;-1.740;2023-03-14T08:09:25;98553.31;;;0.67;100.00
51452;BME280;37521;52.020;-1.740;2023-03-14T08:11:53;98558.50;;;0.68;100.00
51452;BME280;37521;52.020;-1.740;2023-03-14T08:14:24;98573.25;;;0.68;100.00
51452;BME280;37521;52.020;-1.740;2023-03-14T08:16:52;98584.72;;;0.59;100.00
51452;BME280;37521;52.020;-1.740;2023-03-14T08:19:22;98597.59;;;0.64;100.00
51452;BME280;37521;52.020;-1.740;2023-03-14T08:21:51;98604.56;;;0.62;100.00
51452;BME280;37521;52.020;-1.740;2023-03-14T08:24:20;98609.78;;;0.62;100.00
51452;BME280;37521;52.020;-1.740;2023-03-14T08:26:48;98620.97;;;0.64;100.00
51452;BME280;37521;52.020;-1.740;2023-03-14T08:29:16;98626.88;;;0.69;100.00
51452;BME280;37521;52.020;-1.740;2023-03-14T08:31:44;98638.88;;;0.73;100.00
51452;BME280;37521;52.020;-1.740;2023-03-14T08:34:13;98644.91;;;0.75;100.00
51452;BME280;37521;52.020;-1.740;2023-03-14T08:36:42;98646.47;;;0.80;100.00
51452;BME280;37521;52.020;-1.740;2023-03-14T08:39:10;98651.44;;;0.88;100.00
51452;BME280;37521;52.020;-1.740;2023-03-14T08:41:39;98660.22;;;0.84;100.00
51452;BME280;37521;52.020;-1.740;2023-03-14T08:44:10;98669.81;;;0.82;100.00
51452;BME280;37521;52.020;-1.740;2023-03-14T08:46:39;98668.19;;;0.78;100.00
51452;BME280;37521;52.020;-1.740;2023-03-14T08:49:07;98685.56;;;0.76;100.00
51452;BME280;37521;52.020;-1.740;2023-03-14T08:51:35;98681.44;;;0.69;100.00
51452;BME280;37521;52.020;-1.740;2023-03-14T08:54:05;98692.66;;;0.69;100.00
51452;BME280;37521;52.020;-1.740;2023-03-14T08:56:33;98697.22;;;0.61;100.00
51452;BME280;37521;52.020;-1.740;2023-03-14T08:59:01;98712.03;;;0.58;100.00
51452;BME280;37521;52.020;-1.740;2023-03-14T09:01:29;98720.63;;;0.60;100.00
51452;BME280;37521;52.020;-1.740;2023-03-14T09:03:58;98735.47;;;0.56;100.00
51452;BME280;37521;52.020;-1.740;2023-03-14T09:06:26;98747.75;;;0.49;100.00
51452;BME280;37521;52.020;-1.740;2023-03-14T09:08:54;98755.44;;;0.52;100.00
51452;BME280;37521;52.020;-1.740;2023-03-14T09:11:23;98742.94;;;0.68;100.00
51452;BME280;37521;52.020;-1.740;2023-03-14T09:13:51;98747.81;;;0.80;100.00
51452;BME280;37521;52.020;-1.740;2023-03-14T09:16:20;98743.31;;;0.86;100.00
51452;BME280;37521;52.020;-1.740;2023-03-14T09:18:48;98752.63;;;0.94;100.00
51452;BME280;37521;52.020;-1.740;2023-03-14T09:21:16;98753.19;;;1.04;100.00
51452;BME280;37521;52.020;-1.740;2023-03-14T09:23:44;98761.56;;;1.15;100.00
51452;BME280;37521;52.020;-1.740;2023-03-14T09:26:13;98766.47;;;1.24;100.00
51452;BME280;37521;52.020;-1.740;2023-03-14T09:28:42;98768.63;;;1.41;100.00
51452;BME280;37521;52.020;-1.740;2023-03-14T09:31:12;98770.66;;;1.59;100.00
51452;BME280;37521;52.020;-1.740;2023-03-14T09:33:40;98783.97;;;1.78;100.00
51452;BME280;37521;52.020;-1.740;2023-03-14T09:36:08;98782.63;;;1.93;100.00
51452;BME280;37521;52.020;-1.740;2023-03-14T09:38:37;98801.19;;;2.10;100.00
51452;BME280;37521;52.020;-1.740;2023-03-14T09:41:14;98806.94;;;2.20;100.00
51452;BME280;37521;52.020;-1.740;2023-03-14T09:43:45;98807.22;;;2.39;100.00
51452;BME280;37521;52.020;-1.740;2023-03-14T09:46:15;98822.06;;;2.37;100.00
51452;BME280;37521;52.020;-1.740;2023-03-14T09:48:43;98824.72;;;2.35;100.00
51452;BME280;37521;52.020;-1.740;2023-03-14T09:51:14;98820.75;;;2.50;100.00
51452;BME280;37521;52.020;-1.740;2023-03-14T09:53:46;98837.03;;;2.57;100.00
51452;BME280;37521;52.020;-1.740;2023-03-14T09:56:17;98850.66;;;2.65;100.00
51452;BME280;37521;52.020;-1.740;2023-03-14T09:58:51;98844.91;;;2.55;100.00
51452;BME280;37521;52.020;-1.740;2023-03-14T10:01:24;98848.09;;;2.90;100.00
51452;BME280;37521;52.020;-1.740;2023-03-14T10:03:55;98845.06;;;3.27;100.00
51452;BME280;37521;52.020;-1.740;2023-03-14T10:06:26;98868.16;;;3.38;100.00
51452;BME280;37521;52.020;-1.740;2023-03-14T10:08:55;98867.81;;;3.23;100.00
51452;BME280;37521;52.020;-1.740;2023-03-14T10:11:25;98876.97;;;3.10;100.00
51452;BME280;37521;52.020;-1.740;2023-03-14T10:14:08;98883.50;;;2.97;100.00
51452;BME280;37521;52.020;-1.740;2023-03-14T10:16:40;98892.16;;;2.71;100.00
51452;BME280;37521;52.020;-1.740;2023-03-14T10:19:11;98910.72;;;2.62;100.00
51452;BME280;37521;52.020;-1.740;2023-03-14T10:21:41;98918.34;;;2.68;100.00
51452;BME280;37521;52.020;-1.740;2023-03-14T10:24:18;98929.50;;;2.71;100.00
51452;BME280;37521;52.020;-1.740;2023-03-14T10:26:48;98930.00;;;2.56;100.00
51452;BME280;37521;52.020;-1.740;2023-03-14T10:29:19;98938.78;;;2.52;100.00
51452;BME280;37521;52.020;-1.740;2023-03-14T10:31:51;98937.38;;;2.42;100.00
51452;BME280;37521;52.020;-1.740;2023-03-14T10:34:28;98945.91;;;2.47;100.00
51452;BME280;37521;52.020;-1.740;2023-03-14T10:36:59;98946.06;;;2.97;100.00
51452;BME280;37521;52.020;-1.740;2023-03-14T10:39:38;98940.75;;;3.51;100.00
51452;BME280;37521;52.020;-1.740;2023-03-14T10:42:14;98939.69;;;3.82;100.00
51452;BME280;37521;52.020;-1.740;2023-03-14T10:44:49;98941.66;;;3.99;100.00
51452;BME280;37521;52.020;-1.740;2023-03-14T10:47:21;98957.78;;;4.10;100.00
51452;BME280;37521;52.020;-1.740;2023-03-14T10:49:50;98956.81;;;4.13;100.00
51452;BME280;37521;52.020;-1.740;2023-03-14T10:52:21;98967.81;;;4.22;100.00
51452;BME280;37521;52.020;-1.740;2023-03-14T10:55:11;98967.31;;;4.34;100.00
51452;BME280;37521;52.020;-1.740;2023-03-14T10:57:40;98973.91;;;4.45;100.00
51452;BME280;37521;52.020;-1.740;2023-03-14T11:00:14;98977.63;;;4.61;100.00
51452;BME280;37521;52.020;-1.740;2023-03-14T11:03:03;98985.97;;;4.49;100.00
51452;BME280;37521;52.020;-1.740;2023-03-14T11:05:41;98985.63;;;4.11;100.00
51452;BME280;37521;52.020;-1.740;2023-03-14T11:08:15;98993.63;;;4.30;100.00
51452;BME280;37521;52.020;-1.740;2023-03-14T11:10:49;98998.44;;;4.64;100.00
51452;BME280;37521;52.020;-1.740;2023-03-14T11:13:23;99001.06;;;5.08;100.00
51452;BME280;37521;52.020;-1.740;2023-03-14T11:15:58;99004.34;;;5.13;100.00
51452;BME280;37521;52.020;-1.740;2023-03-14T11:21:36;99021.75;;;5.98;100.00
51452;BME280;37521;52.020;-1.740;2023-03-14T11:24:21;99019.91;;;6.00;100.00
51452;BME280;37521;52.020;-1.740;2023-03-14T11:26:59;99028.00;;;6.15;100.00
51452;BME280;37521;52.020;-1.740;2023-03-14T11:29:37;99033.75;;;6.43;100.00
51452;BME280;37521;52.020;-1.740;2023-03-14T11:32:13;99035.09;;;6.13;100.00
51452;BME280;37521;52.020;-1.740;2023-03-14T11:34:46;99040.50;;;6.10;100.00
51452;BME280;37521;52.020;-1.740;2023-03-14T11:37:21;99047.44;;;6.11;100.00
51452;BME280;37521;52.020;-1.740;2023-03-14T11:39:58;99045.31;;;6.19;100.00
51452;BME280;37521;52.020;-1.740;2023-03-14T11:42:28;99056.84;;;5.94;100.00
51452;BME280;37521;52.020;-1.740;2023-03-14T11:44:57;99058.44;;;5.98;100.00
51452;BME280;37521;52.020;-1.740;2023-03-14T11:47:33;99049.53;;;6.03;100.00
51452;BME280;37521;52.020;-1.740;2023-03-14T11:50:08;99052.38;;;6.37;100.00
51452;BME280;37521;52.020;-1.740;2023-03-14T11:52:45;99043.69;;;6.74;100.00
51452;BME280;37521;52.020;-1.740;2023-03-14T11:55:19;99051.06;;;6.85;100.00
51452;BME280;37521;52.020;-1.740;2023-03-14T11:57:49;99057.81;;;6.72;99.76
51452;BME280;37521;52.020;-1.740;2023-03-14T12:00:20;99053.19;;;6.77;100.00
51452;BME280;37521;52.020;-1.740;2023-03-14T12:02:56;99051.91;;;6.86;96.45
51452;BME280;37521;52.020;-1.740;2023-03-14T12:05:37;99064.69;;;6.93;97.97
51452;BME280;37521;52.020;-1.740;2023-03-14T12:08:40;99069.50;;;6.65;87.36
51452;BME280;37521;52.020;-1.740;2023-03-14T12:11:14;99071.47;;;6.60;88.31
51452;BME280;37521;52.020;-1.740;2023-03-14T12:13:47;99070.22;;;6.48;86.09
51452;BME280;37521;52.020;-1.740;2023-03-14T12:16:36;99074.84;;;6.43;87.28
51452;BME280;37521;52.020;-1.740;2023-03-14T12:19:27;99080.75;;;6.27;84.89
51452;BME280;37521;52.020;-1.740;2023-03-14T12:21:58;99080.41;;;6.55;86.59
51452;BME280;37521;52.020;-1.740;2023-03-14T12:24:30;99080.56;;;6.90;84.80
51452;BME280;37521;52.020;-1.740;2023-03-14T12:27:01;99082.13;;;7.13;85.53
51452;BME280;37521;52.020;-1.740;2023-03-14T12:29:30;99070.31;;;7.22;75.42
51452;BME280;37521;52.020;-1.740;2023-03-14T12:32:21;99075.03;;;6.96;73.36
51452;BME280;37521;52.020;-1.740;2023-03-14T12:34:52;99079.72;;;6.71;67.62
51452;BME280;37521;52.020;-1.740;2023-03-14T12:40:17;99078.28;;;7.01;77.53
51452;BME280;37521;52.020;-1.740;2023-03-14T12:42:57;99079.38;;;7.52;76.39
51452;BME280;37521;52.020;-1.740;2023-03-14T12:45:28;99080.00;;;7.75;72.74
51452;BME280;37521;52.020;-1.740;2023-03-14T12:48:08;99076.25;;;7.98;67.37
51452;BME280;37521;52.020;-1.740;2023-03-14T12:50:43;99084.63;;;8.22;66.98
51452;BME280;37521;52.020;-1.740;2023-03-14T12:53:33;99087.44;;;8.36;64.93
51452;BME280;37521;52.020;-1.740;2023-03-14T12:56:11;99089.91;;;8.22;63.31
51452;BME280;37521;52.020;-1.740;2023-03-14T12:58:51;99084.00;;;8.34;63.95
51452;BME280;37521;52.020;-1.740;2023-03-14T13:01:26;99087.81;;;7.93;64.24
51452;BME280;37521;52.020;-1.740;2023-03-14T13:03:56;99084.28;;;8.12;66.29
51452;BME280;37521;52.020;-1.740;2023-03-14T13:06:46;99086.44;;;8.71;65.35
51452;BME280;37521;52.020;-1.740;2023-03-14T13:09:34;99079.19;;;8.59;64.13
51452;BME280;37521;52.020;-1.740;2023-03-14T13:12:09;99089.28;;;8.51;63.17
51452;BME280;37521;52.020;-1.740;2023-03-14T13:14:41;99092.34;;;8.59;62.77
51452;BME280;37521;52.020;-1.740;2023-03-14T13:17:13;99088.44;;;8.51;62.49
51452;BME280;37521;52.020;-1.740;2023-03-14T13:20:06;99088.03;;;8.58;61.06
51452;BME280;37521;52.020;-1.740;2023-03-14T13:22:46;99091.44;;;8.26;62.76
51452;BME280;37521;52.020;-1.740;2023-03-14T13:25:15;99097.50;;;7.76;63.52